Talin, Estonija

05:37 AM EEST on avgust 25, 2016 (GMT +0300)
Ulemiste | | Change Station

Viš 131 ft 59.41 °N, 24.83 °E | Updated 17 minutes ago

Shallow Fog
Nizka megla
54 °F
Feels Like 54 °F
N
2
Veter Spremenljivo Veter od Spremenljivo

Danes
High -- | Low -- °F
--% Chance of Precip.
Yesterday
High -- | Low -- °F
Precip. -- v
Zračni tlak 30.21 v
Vidljivost 6.2 milje
Oblaki
Rosišče 54 °F
Vlažnost 100%
Padavine 0.00 v
Snow Depth Not available.
6:01 AM 8:42 PM
Pojemajoča luna, 51% visible
METAR EETN 250220Z VRB02KT 9999 MIFG NSC 12/12 Q1023
Zračni tlak 30.21 v
Vidljivost 6.2 milje
Oblaki
Rosišče 54 °F
Vlažnost 100%
Padavine 0.00 v
Snow Depth Not available.
6:01 AM 8:42 PM
Pojemajoča luna, 51% visible
METAR EETN 250220Z VRB02KT 9999 MIFG NSC 12/12 Q1023

10-Day Weather Forecast

×

Almanac

Astronomija

Aug. 25, 2016 Rise Set
Actual Time
Civil Twilight
Nautical Twilight
Astronomical Twilight
Moon
Length Of Visible Light
Dolžina dneva
Tomorrow will be .
, % of the Moon is Illuminated

Današnji ekstremi

Country Highs Country Lows

Community

WunderPhotos

Upload Photos

1,934,778 photos uploaded!

WunderBlog® & News

Nearby

Air Quality

  Air Quality AQ Index Pollutant
Not available.

Snow Depth

Station Depth Višina

Earthquake Activity

City Distance Mag. Time & Date
Minimum magnitude displayed is 2.5.

Coastal Water Temperatures

Mesto Temperatura

Stations

Nearby Weather Stations

Station Location Temp Občutek zaradi vetra Rosišče Vlažnost Veter Precip. Viš Obnovljeno Type